Time;durP1;ratioP1;P1;durP2;ratioP2;P2;SDS_P1;SDS_P2;PMS_P1;PMS_P2;Temp;Humidity;BMP_temperature;BMP_pressure;BME280_temperature;BME280_humidity;BME280_pressure;Samples;Min_cycle;Max_cycle;Signal;HPM_P1;HPM_P2
2020/02/08 00:00:11;;;;;;;39.95;20.6;;;;;;;-2.59;77.58594;95901.47;;;;
2020/02/08 00:06:03;;;;;;;41.9;22.15;;;;;;;-2.81;77.70313;95899.06;;;;
2020/02/08 00:07:06;;;;;;;41.9;22.15;;;;;;;-2.81;77.70313;95899.06;;;;
2020/02/08 00:08:12;;;;;;;41.9;22.15;;;;;;;-2.81;77.70313;95899.06;;;;
2020/02/08 00:09:16;;;;;;;41.9;22.15;;;;;;;-2.81;77.70313;95899.06;;;;
2020/02/08 00:10:40;;;;;;;41.9;22.15;;;;;;;-2.81;77.70313;95899.06;;;;
2020/02/08 00:11:45;;;;;;;41.9;22.15;;;;;;;-2.81;77.70313;95899.06;;;;
2020/02/08 00:12:46;;;;;;;41.9;22.15;;;;;;;-2.81;77.70313;95899.06;;;;
2020/02/08 00:13:47;;;;;;;41.9;22.15;;;;;;;-2.81;77.70313;95899.06;;;;
2020/02/08 00:14:48;;;;;;;41.9;22.15;;;;;;;-2.81;77.70313;95899.06;;;;
2020/02/08 00:15:48;;;;;;;33.5;18.3;;;;;;;-2.94;77.33789;95895.86;;;;
2020/02/08 00:16:52;;;;;;;33.5;18.3;;;;;;;-2.94;77.33789;95895.86;;;;
2020/02/08 00:17:58;;;;;;;33.5;18.3;;;;;;;-2.94;77.33789;95895.86;;;;
2020/02/08 00:19:00;;;;;;;37.85;21.1;;;;;;;-2.92;77.64258;95889.04;;;;
2020/02/08 00:20:00;;;;;;;37.85;21.1;;;;;;;-2.92;77.64258;95889.04;;;;
2020/02/08 00:21:01;;;;;;;37.85;21.1;;;;;;;-2.92;77.64258;95889.04;;;;
2020/02/08 00:22:18;;;;;;;37.85;21.1;;;;;;;-2.92;77.64258;95889.04;;;;
2020/02/08 00:23:23;;;;;;;37.85;21.1;;;;;;;-2.92;77.64258;95889.04;;;;
2020/02/08 00:27:56;;;;;;;37.85;21.1;;;;;;;-2.92;77.64258;95889.04;;;;
2020/02/08 00:29:06;;;;;;;35.90001;18.1;;;;;;;-3.03;77.24805;95883.95;;;;
2020/02/08 00:30:23;;;;;;;35.90001;18.1;;;;;;;-3.03;77.24805;95883.95;;;;
2020/02/08 00:31:48;;;;;;;39.25;21.7;;;;;;;-3.01;77.57422;95886.4;;;;
2020/02/08 00:33:16;;;;;;;39.25;21.7;;;;;;;-3.01;77.57422;95886.4;;;;
2020/02/08 00:34:25;;;;;;;39.25;21.7;;;;;;;-3.01;77.57422;95886.4;;;;
2020/02/08 00:35:49;;;;;;;39.25;21.7;;;;;;;-3.01;77.57422;95886.4;;;;
2020/02/08 00:36:55;;;;;;;39.25;21.7;;;;;;;-3.01;77.57422;95886.4;;;;
2020/02/08 00:38:04;;;;;;;39.25;21.7;;;;;;;-3.01;77.57422;95886.4;;;;
2020/02/08 00:39:16;;;;;;;39.25;21.7;;;;;;;-3.01;77.57422;95886.4;;;;
2020/02/08 00:40:35;;;;;;;39.25;21.7;;;;;;;-3.01;77.57422;95886.4;;;;
2020/02/08 00:41:40;;;;;;;39.25;21.7;;;;;;;-3.01;77.57422;95886.4;;;;
2020/02/08 00:42:41;;;;;;;37.7;18.45;;;;;;;-3.15;77.03027;95877.58;;;;
2020/02/08 00:43:58;;;;;;;37.7;18.45;;;;;;;-3.15;77.03027;95877.58;;;;
2020/02/08 00:45:03;;;;;;;42.95;22.8;;;;;;;-3.14;77.36328;95875.69;;;;
2020/02/08 00:46:04;;;;;;;42.95;22.8;;;;;;;-3.14;77.36328;95875.69;;;;
2020/02/08 00:47:09;;;;;;;42.95;22.8;;;;;;;-3.14;77.36328;95875.69;;;;
2020/02/08 00:48:11;;;;;;;42.95;22.8;;;;;;;-3.14;77.36328;95875.69;;;;
2020/02/08 00:49:13;;;;;;;42.95;22.8;;;;;;;-3.14;77.36328;95875.69;;;;
2020/02/08 00:50:26;;;;;;;42.95;22.8;;;;;;;-3.14;77.36328;95875.69;;;;
2020/02/08 00:51:33;;;;;;;42.95;22.8;;;;;;;-3.14;77.36328;95875.69;;;;
2020/02/08 00:52:38;;;;;;;42.95;22.8;;;;;;;-3.14;77.36328;95875.69;;;;
2020/02/08 00:53:39;;;;;;;42.95;22.8;;;;;;;-3.14;77.36328;95875.69;;;;
2020/02/08 00:54:46;;;;;;;42.95;22.8;;;;;;;-3.14;77.36328;95875.69;;;;
2020/02/08 00:55:52;;;;;;;37.55;19.05;;;;;;;-3.27;76.97852;95868.05;;;;
2020/02/08 00:56:55;;;;;;;37.55;19.05;;;;;;;-3.27;76.97852;95868.05;;;;
2020/02/08 00:57:56;;;;;;;42.9;23.5;;;;;;;-3.22;77.39941;95867.22;;;;
2020/02/08 00:58:57;;;;;;;42.9;23.5;;;;;;;-3.22;77.39941;95867.22;;;;
2020/02/08 00:59:57;;;;;;;42.9;23.5;;;;;;;-3.22;77.39941;95867.22;;;;
2020/02/08 01:01:28;;;;;;;42.9;23.5;;;;;;;-3.22;77.39941;95867.22;;;;
2020/02/08 01:02:40;;;;;;;42.9;23.5;;;;;;;-3.22;77.39941;95867.22;;;;
2020/02/08 01:03:51;;;;;;;42.9;23.5;;;;;;;-3.22;77.39941;95867.22;;;;
2020/02/08 01:04:54;;;;;;;42.9;23.5;;;;;;;-3.22;77.39941;95867.22;;;;
2020/02/08 01:05:57;;;;;;;42.9;23.5;;;;;;;-3.22;77.39941;95867.22;;;;
2020/02/08 01:07:08;;;;;;;42.9;23.5;;;;;;;-3.22;77.39941;95867.22;;;;
2020/02/08 01:08:17;;;;;;;42.9;23.5;;;;;;;-3.22;77.39941;95867.22;;;;
2020/02/08 01:09:20;;;;;;;35.4;18.25;;;;;;;-3.27;77.0293;95879.08;;;;
2020/02/08 01:12:05;;;;;;;39.25;22.4;;;;;;;-3.24;77.45801;95870.9;;;;
2020/02/08 01:13:10;;;;;;;39.25;22.4;;;;;;;-3.24;77.45801;95870.9;;;;
2020/02/08 01:14:21;;;;;;;39.25;22.4;;;;;;;-3.24;77.45801;95870.9;;;;
2020/02/08 01:15:33;;;;;;;39.25;22.4;;;;;;;-3.24;77.45801;95870.9;;;;
2020/02/08 01:17:41;;;;;;;39.25;22.4;;;;;;;-3.24;77.45801;95870.9;;;;
2020/02/08 01:19:06;;;;;;;39.25;22.4;;;;;;;-3.24;77.45801;95870.9;;;;
2020/02/08 01:25:41;;;;;;;35.35;20.85;;;;;;;-3.3;77.38379;95888.18;;;;
2020/02/08 01:26:54;;;;;;;35.35;20.85;;;;;;;-3.3;77.38379;95888.18;;;;
2020/02/08 01:27:59;;;;;;;35.35;20.85;;;;;;;-3.3;77.38379;95888.18;;;;
2020/02/08 01:29:37;;;;;;;35.35;20.85;;;;;;;-3.3;77.38379;95888.18;;;;
2020/02/08 01:30:50;;;;;;;35.35;20.85;;;;;;;-3.3;77.38379;95888.18;;;;
2020/02/08 01:31:58;;;;;;;35.35;20.85;;;;;;;-3.3;77.38379;95888.18;;;;
2020/02/08 01:33:26;;;;;;;35.35;20.85;;;;;;;-3.3;77.38379;95888.18;;;;
2020/02/08 01:38:09;;;;;;;37.1;21.25;;;;;;;-3.41;77.34473;95884.77;;;;
2020/02/08 01:39:21;;;;;;;37.1;21.25;;;;;;;-3.41;77.34473;95884.77;;;;
2020/02/08 01:41:09;;;;;;;37.1;21.25;;;;;;;-3.41;77.34473;95884.77;;;;
2020/02/08 01:42:28;;;;;;;37.1;21.25;;;;;;;-3.41;77.34473;95884.77;;;;
2020/02/08 01:43:50;;;;;;;37.1;21.25;;;;;;;-3.41;77.34473;95884.77;;;;
2020/02/08 01:45:00;;;;;;;37.1;21.25;;;;;;;-3.41;77.34473;95884.77;;;;
2020/02/08 01:46:09;;;;;;;37.1;21.25;;;;;;;-3.41;77.34473;95884.77;;;;
2020/02/08 01:57:58;;;;;;;38.3;20.85;;;;;;;-3.51;77.46191;95869.83;;;;
2020/02/08 01:59:14;;;;;;;38.3;20.85;;;;;;;-3.51;77.46191;95869.83;;;;
2020/02/08 02:00:55;;;;;;;38.3;20.85;;;;;;;-3.51;77.46191;95869.83;;;;
2020/02/08 02:03:15;;;;;;;30.3;16.7;;;;;;;-3.64;77.17773;95859.59;;;;
2020/02/08 02:04:26;;;;;;;30.3;16.7;;;;;;;-3.64;77.17773;95859.59;;;;
2020/02/08 02:06:44;;;;;;;30.3;16.7;;;;;;;-3.64;77.17773;95859.59;;;;
2020/02/08 02:08:24;;;;;;;30.3;16.7;;;;;;;-3.64;77.17773;95859.59;;;;
2020/02/08 02:09:41;;;;;;;30.3;16.7;;;;;;;-3.64;77.17773;95859.59;;;;
2020/02/08 02:12:21;;;;;;;30.3;16.7;;;;;;;-3.64;77.17773;95859.59;;;;
2020/02/08 02:13:36;;;;;;;32.65;16.85;;;;;;;-3.72;76.89453;95855.06;;;;
2020/02/08 02:15:28;;;;;;;32.65;16.85;;;;;;;-3.72;76.89453;95855.06;;;;
2020/02/08 02:16:57;;;;;;;32.65;16.85;;;;;;;-3.72;76.89453;95855.06;;;;
2020/02/08 02:18:12;;;;;;;32.65;16.85;;;;;;;-3.72;76.89453;95855.06;;;;
2020/02/08 02:19:25;;;;;;;32.65;16.85;;;;;;;-3.72;76.89453;95855.06;;;;
2020/02/08 02:20:52;;;;;;;32.65;16.85;;;;;;;-3.72;76.89453;95855.06;;;;
2020/02/08 02:22:23;;;;;;;32.65;16.85;;;;;;;-3.72;76.89453;95855.06;;;;
2020/02/08 02:23:39;;;;;;;34.2;17.95;;;;;;;-3.83;76.60742;95870.11;;;;
2020/02/08 02:24:56;;;;;;;34.2;17.95;;;;;;;-3.83;76.60742;95870.11;;;;
2020/02/08 02:26:05;;;;;;;37.45;19;;;;;;;-3.8;77.03613;95864.08;;;;
2020/02/08 02:27:15;;;;;;;37.45;19;;;;;;;-3.8;77.03613;95864.08;;;;
2020/02/08 02:28:27;;;;;;;37.45;19;;;;;;;-3.8;77.03613;95864.08;;;;
2020/02/08 02:29:39;;;;;;;37.45;19;;;;;;;-3.8;77.03613;95864.08;;;;
2020/02/08 02:30:54;;;;;;;37.45;19;;;;;;;-3.8;77.03613;95864.08;;;;
2020/02/08 02:32:11;;;;;;;37.45;19;;;;;;;-3.8;77.03613;95864.08;;;;
2020/02/08 02:34:30;;;;;;;37.45;19;;;;;;;-3.8;77.03613;95864.08;;;;
2020/02/08 02:35:50;;;;;;;37.45;19;;;;;;;-3.8;77.03613;95864.08;;;;
2020/02/08 02:37:02;;;;;;;34.05;17.6;;;;;;;-3.87;76.63965;95859.89;;;;
2020/02/08 02:38:52;;;;;;;34.05;17.6;;;;;;;-3.87;76.63965;95859.89;;;;
2020/02/08 02:44:06;;;;;;;34.05;17.6;;;;;;;-3.87;76.63965;95859.89;;;;
2020/02/08 02:50:28;;;;;;;32.2;17.3;;;;;;;-3.92;76.55957;95859.43;;;;
2020/02/08 02:51:31;;;;;;;32.2;17.3;;;;;;;-3.92;76.55957;95859.43;;;;
2020/02/08 02:52:32;;;;;;;32.2;17.3;;;;;;;-3.92;76.55957;95859.43;;;;
2020/02/08 02:53:55;;;;;;;32.2;17.3;;;;;;;-3.92;76.55957;95859.43;;;;
2020/02/08 02:55:02;;;;;;;32.2;17.3;;;;;;;-3.92;76.55957;95859.43;;;;
2020/02/08 02:56:25;;;;;;;32.2;17.3;;;;;;;-3.92;76.55957;95859.43;;;;
2020/02/08 02:57:45;;;;;;;36.10001;17.4;;;;;;;-3.98;76.57813;95837.58;;;;
2020/02/08 02:59:03;;;;;;;36.10001;17.4;;;;;;;-3.98;76.57813;95837.58;;;;
2020/02/08 03:00:41;;;;;;;36.10001;17.4;;;;;;;-3.98;76.57813;95837.58;;;;
2020/02/08 03:02:33;;;;;;;36.10001;17.4;;;;;;;-3.98;76.57813;95837.58;;;;
2020/02/08 03:09:29;;;;;;;36.59999;17.1;;;;;;;-3.96;76.3125;95842.24;;;;
2020/02/08 03:10:56;;;;;;;36.59999;17.1;;;;;;;-3.96;76.3125;95842.24;;;;
2020/02/08 03:18:43;;;;;;;36.59999;17.1;;;;;;;-3.96;76.3125;95842.24;;;;
2020/02/08 03:20:22;;;;;;;33.34999;16.9;;;;;;;-4.06;76.14063;95846.2;;;;
2020/02/08 03:21:46;;;;;;;33.34999;16.9;;;;;;;-4.06;76.14063;95846.2;;;;
2020/02/08 03:33:14;;;;;;;30.65;16;;;;;;;-4.08;76.0752;95835.8;;;;
2020/02/08 03:34:24;;;;;;;30.65;16;;;;;;;-4.08;76.0752;95835.8;;;;
2020/02/08 03:36:07;;;;;;;30.65;16;;;;;;;-4.08;76.0752;95835.8;;;;
2020/02/08 03:37:20;;;;;;;30.65;16;;;;;;;-4.08;76.0752;95835.8;;;;
2020/02/08 03:39:34;;;;;;;30.65;16;;;;;;;-4.08;76.0752;95835.8;;;;
2020/02/08 03:41:14;;;;;;;29.85;15.85;;;;;;;-4.18;75.95508;95842.85;;;;
2020/02/08 03:42:26;;;;;;;29.85;15.85;;;;;;;-4.18;75.95508;95842.85;;;;
2020/02/08 03:43:33;;;;;;;34.7;19.6;;;;;;;-4.14;76.32324;95849.95;;;;
2020/02/08 03:44:59;;;;;;;34.7;19.6;;;;;;;-4.14;76.32324;95849.95;;;;
2020/02/08 03:46:07;;;;;;;34.7;19.6;;;;;;;-4.14;76.32324;95849.95;;;;
2020/02/08 03:48:25;;;;;;;34.7;19.6;;;;;;;-4.14;76.32324;95849.95;;;;
2020/02/08 03:49:33;;;;;;;34.7;19.6;;;;;;;-4.14;76.32324;95849.95;;;;
2020/02/08 03:50:40;;;;;;;34.7;19.6;;;;;;;-4.14;76.32324;95849.95;;;;
2020/02/08 03:52:18;;;;;;;34.7;19.6;;;;;;;-4.14;76.32324;95849.95;;;;
2020/02/08 03:53:27;;;;;;;37.65;17.25;;;;;;;-4.17;76.14258;95847.14;;;;
2020/02/08 03:54:35;;;;;;;37.65;17.25;;;;;;;-4.17;76.14258;95847.14;;;;
2020/02/08 03:55:42;;;;;;;37.65;17.25;;;;;;;-4.17;76.14258;95847.14;;;;
2020/02/08 03:56:47;;;;;;;37.65;17.25;;;;;;;-4.17;76.14258;95847.14;;;;
2020/02/08 03:57:51;;;;;;;37.65;17.25;;;;;;;-4.17;76.14258;95847.14;;;;
2020/02/08 03:59:24;;;;;;;37.65;17.25;;;;;;;-4.17;76.14258;95847.14;;;;
2020/02/08 04:00:25;;;;;;;37.65;17.25;;;;;;;-4.17;76.14258;95847.14;;;;
2020/02/08 04:02:30;;;;;;;37.65;17.25;;;;;;;-4.17;76.14258;95847.14;;;;
2020/02/08 04:03:32;;;;;;;32.1;15.35;;;;;;;-4.2;76.19824;95843.94;;;;
2020/02/08 04:04:33;;;;;;;32.1;15.35;;;;;;;-4.2;76.19824;95843.94;;;;
2020/02/08 04:05:33;;;;;;;32.1;15.35;;;;;;;-4.2;76.19824;95843.94;;;;
2020/02/08 04:06:34;;;;;;;32.1;15.35;;;;;;;-4.2;76.19824;95843.94;;;;
2020/02/08 04:07:34;;;;;;;32.1;15.35;;;;;;;-4.2;76.19824;95843.94;;;;
2020/02/08 04:08:35;;;;;;;32.1;15.35;;;;;;;-4.2;76.19824;95843.94;;;;
2020/02/08 04:09:36;;;;;;;32.1;15.35;;;;;;;-4.2;76.19824;95843.94;;;;
2020/02/08 04:10:40;;;;;;;32.1;15.35;;;;;;;-4.2;76.19824;95843.94;;;;
2020/02/08 04:11:41;;;;;;;32.1;15.35;;;;;;;-4.2;76.19824;95843.94;;;;
2020/02/08 04:12:42;;;;;;;32.1;15.35;;;;;;;-4.2;76.19824;95843.94;;;;
2020/02/08 04:13:44;;;;;;;32.1;15.35;;;;;;;-4.2;76.19824;95843.94;;;;
2020/02/08 04:14:44;;;;;;;31.45;15.75;;;;;;;-4.3;76.03516;95838.23;;;;
2020/02/08 04:15:44;;;;;;;31.45;15.75;;;;;;;-4.3;76.03516;95838.23;;;;
2020/02/08 04:16:48;;;;;;;31.45;15.75;;;;;;;-4.3;76.03516;95838.23;;;;
2020/02/08 04:17:48;;;;;;;31.45;15.75;;;;;;;-4.3;76.03516;95838.23;;;;
2020/02/08 04:18:49;;;;;;;31.45;15.75;;;;;;;-4.3;76.03516;95838.23;;;;
2020/02/08 04:19:49;;;;;;;31.45;15.75;;;;;;;-4.3;76.03516;95838.23;;;;
2020/02/08 04:20:49;;;;;;;31.45;15.75;;;;;;;-4.3;76.03516;95838.23;;;;
2020/02/08 04:21:50;;;;;;;31.45;15.75;;;;;;;-4.3;76.03516;95838.23;;;;
2020/02/08 04:22:51;;;;;;;31.45;15.75;;;;;;;-4.3;76.03516;95838.23;;;;
2020/02/08 04:23:51;;;;;;;31.45;15.75;;;;;;;-4.3;76.03516;95838.23;;;;
2020/02/08 04:24:52;;;;;;;29.3;14.85;;;;;;;-4.31;75.99316;95829.47;;;;
2020/02/08 04:25:52;;;;;;;29.3;14.85;;;;;;;-4.31;75.99316;95829.47;;;;
2020/02/08 04:26:54;;;;;;;29.3;14.85;;;;;;;-4.31;75.99316;95829.47;;;;
2020/02/08 04:27:54;;;;;;;29.3;14.85;;;;;;;-4.31;75.99316;95829.47;;;;
2020/02/08 04:28:55;;;;;;;29.3;14.85;;;;;;;-4.31;75.99316;95829.47;;;;
2020/02/08 04:29:55;;;;;;;29.3;14.85;;;;;;;-4.31;75.99316;95829.47;;;;
2020/02/08 04:30:55;;;;;;;29.3;14.85;;;;;;;-4.31;75.99316;95829.47;;;;
2020/02/08 04:31:56;;;;;;;29.3;14.85;;;;;;;-4.31;75.99316;95829.47;;;;
2020/02/08 04:32:57;;;;;;;29.3;14.85;;;;;;;-4.31;75.99316;95829.47;;;;
2020/02/08 04:33:58;;;;;;;29.3;14.85;;;;;;;-4.31;75.99316;95829.47;;;;
2020/02/08 04:34:58;;;;;;;29.3;14.85;;;;;;;-4.31;75.99316;95829.47;;;;
2020/02/08 04:35:59;;;;;;;28.3;15.15;;;;;;;-4.39;75.82324;95831.92;;;;
2020/02/08 04:36:59;;;;;;;28.3;15.15;;;;;;;-4.39;75.82324;95831.92;;;;
2020/02/08 04:38:00;;;;;;;28.3;15.15;;;;;;;-4.39;75.82324;95831.92;;;;
2020/02/08 04:39:00;;;;;;;28.3;15.15;;;;;;;-4.39;75.82324;95831.92;;;;
2020/02/08 04:40:01;;;;;;;28.3;15.15;;;;;;;-4.39;75.82324;95831.92;;;;
2020/02/08 04:41:02;;;;;;;28.3;15.15;;;;;;;-4.39;75.82324;95831.92;;;;
2020/02/08 04:42:03;;;;;;;28.3;15.15;;;;;;;-4.39;75.82324;95831.92;;;;
2020/02/08 04:43:03;;;;;;;28.3;15.15;;;;;;;-4.39;75.82324;95831.92;;;;
2020/02/08 04:44:04;;;;;;;28.3;15.15;;;;;;;-4.39;75.82324;95831.92;;;;
2020/02/08 04:45:04;;;;;;;28.3;15.15;;;;;;;-4.39;75.82324;95831.92;;;;
2020/02/08 04:46:05;;;;;;;28;15.05;;;;;;;-4.41;75.78906;95827.29;;;;
2020/02/08 04:47:06;;;;;;;28;15.05;;;;;;;-4.41;75.78906;95827.29;;;;
2020/02/08 04:48:06;;;;;;;28;15.05;;;;;;;-4.41;75.78906;95827.29;;;;
2020/02/08 04:49:07;;;;;;;28;15.05;;;;;;;-4.41;75.78906;95827.29;;;;
2020/02/08 04:50:07;;;;;;;28;15.05;;;;;;;-4.41;75.78906;95827.29;;;;
2020/02/08 04:51:08;;;;;;;28;15.05;;;;;;;-4.41;75.78906;95827.29;;;;
2020/02/08 04:52:08;;;;;;;28;15.05;;;;;;;-4.41;75.78906;95827.29;;;;
2020/02/08 04:53:10;;;;;;;28;15.05;;;;;;;-4.41;75.78906;95827.29;;;;
2020/02/08 04:54:11;;;;;;;28;15.05;;;;;;;-4.41;75.78906;95827.29;;;;
2020/02/08 04:55:11;;;;;;;28;15.05;;;;;;;-4.41;75.78906;95827.29;;;;
2020/02/08 04:56:12;;;;;;;28;15.05;;;;;;;-4.41;75.78906;95827.29;;;;
2020/02/08 04:57:12;;;;;;;26.25;13.75;;;;;;;-4.51;75.7207;95833.4;;;;
2020/02/08 04:58:13;;;;;;;26.25;13.75;;;;;;;-4.51;75.7207;95833.4;;;;
2020/02/08 04:59:13;;;;;;;26.25;13.75;;;;;;;-4.51;75.7207;95833.4;;;;
2020/02/08 05:00:14;;;;;;;26.25;13.75;;;;;;;-4.51;75.7207;95833.4;;;;
2020/02/08 05:01:23;;;;;;;26.25;13.75;;;;;;;-4.51;75.7207;95833.4;;;;
2020/02/08 05:02:27;;;;;;;26.25;13.75;;;;;;;-4.51;75.7207;95833.4;;;;
2020/02/08 05:03:28;;;;;;;26.25;13.75;;;;;;;-4.51;75.7207;95833.4;;;;
2020/02/08 05:04:28;;;;;;;26.25;13.75;;;;;;;-4.51;75.7207;95833.4;;;;
2020/02/08 05:05:29;;;;;;;26.25;13.75;;;;;;;-4.51;75.7207;95833.4;;;;
2020/02/08 05:06:29;;;;;;;26.25;13.75;;;;;;;-4.51;75.7207;95833.4;;;;
2020/02/08 05:07:30;;;;;;;26;13.75;;;;;;;-4.51;75.73047;95826.82;;;;
2020/02/08 05:08:30;;;;;;;26;13.75;;;;;;;-4.51;75.73047;95826.82;;;;
2020/02/08 05:09:31;;;;;;;26;13.75;;;;;;;-4.51;75.73047;95826.82;;;;
2020/02/08 05:10:31;;;;;;;26;13.75;;;;;;;-4.51;75.73047;95826.82;;;;
2020/02/08 05:11:32;;;;;;;26;13.75;;;;;;;-4.51;75.73047;95826.82;;;;
2020/02/08 05:12:32;;;;;;;26;13.75;;;;;;;-4.51;75.73047;95826.82;;;;
2020/02/08 05:13:33;;;;;;;26;13.75;;;;;;;-4.51;75.73047;95826.82;;;;
2020/02/08 05:14:33;;;;;;;26;13.75;;;;;;;-4.51;75.73047;95826.82;;;;
2020/02/08 05:15:34;;;;;;;26;13.75;;;;;;;-4.51;75.73047;95826.82;;;;
2020/02/08 05:16:34;;;;;;;26;13.75;;;;;;;-4.51;75.73047;95826.82;;;;
2020/02/08 05:17:35;;;;;;;26;13.75;;;;;;;-4.51;75.73047;95826.82;;;;
2020/02/08 05:18:35;;;;;;;24.65;12.95;;;;;;;-4.57;75.69824;95834.43;;;;
2020/02/08 05:19:36;;;;;;;24.65;12.95;;;;;;;-4.57;75.69824;95834.43;;;;
2020/02/08 05:20:37;;;;;;;24.65;12.95;;;;;;;-4.57;75.69824;95834.43;;;;
2020/02/08 05:21:37;;;;;;;24.65;12.95;;;;;;;-4.57;75.69824;95834.43;;;;
2020/02/08 05:22:38;;;;;;;24.65;12.95;;;;;;;-4.57;75.69824;95834.43;;;;
2020/02/08 05:23:38;;;;;;;24.65;12.95;;;;;;;-4.57;75.69824;95834.43;;;;
2020/02/08 05:24:38;;;;;;;24.65;12.95;;;;;;;-4.57;75.69824;95834.43;;;;
2020/02/08 05:25:53;;;;;;;24.65;12.95;;;;;;;-4.57;75.69824;95834.43;;;;
2020/02/08 05:27:32;;;;;;;24.65;12.95;;;;;;;-4.57;75.69824;95834.43;;;;
2020/02/08 05:28:37;;;;;;;24.75;12.15;;;;;;;-4.55;75.65039;95835.53;;;;
2020/02/08 05:29:38;;;;;;;24.75;12.15;;;;;;;-4.55;75.65039;95835.53;;;;
2020/02/08 05:30:39;;;;;;;24.75;12.15;;;;;;;-4.55;75.65039;95835.53;;;;
2020/02/08 05:31:40;;;;;;;24.75;12.15;;;;;;;-4.55;75.65039;95835.53;;;;
2020/02/08 05:32:40;;;;;;;24.75;12.15;;;;;;;-4.55;75.65039;95835.53;;;;
2020/02/08 05:33:41;;;;;;;24.75;12.15;;;;;;;-4.55;75.65039;95835.53;;;;
2020/02/08 05:34:41;;;;;;;24.75;12.15;;;;;;;-4.55;75.65039;95835.53;;;;
2020/02/08 05:35:42;;;;;;;24.75;12.15;;;;;;;-4.55;75.65039;95835.53;;;;
2020/02/08 05:36:42;;;;;;;24.75;12.15;;;;;;;-4.55;75.65039;95835.53;;;;
2020/02/08 05:37:43;;;;;;;24.75;12.15;;;;;;;-4.55;75.65039;95835.53;;;;
2020/02/08 05:38:43;;;;;;;24.75;12.15;;;;;;;-4.55;75.65039;95835.53;;;;
2020/02/08 05:39:44;;;;;;;22.75;12.25;;;;;;;-4.61;75.56543;95849.72;;;;
2020/02/08 05:40:44;;;;;;;22.75;12.25;;;;;;;-4.61;75.56543;95849.72;;;;
2020/02/08 05:41:44;;;;;;;22.75;12.25;;;;;;;-4.61;75.56543;95849.72;;;;
2020/02/08 05:42:45;;;;;;;22.75;12.25;;;;;;;-4.61;75.56543;95849.72;;;;
2020/02/08 05:43:45;;;;;;;22.75;12.25;;;;;;;-4.61;75.56543;95849.72;;;;
2020/02/08 05:44:46;;;;;;;22.75;12.25;;;;;;;-4.61;75.56543;95849.72;;;;
2020/02/08 05:45:46;;;;;;;22.75;12.25;;;;;;;-4.61;75.56543;95849.72;;;;
2020/02/08 05:46:47;;;;;;;22.75;12.25;;;;;;;-4.61;75.56543;95849.72;;;;
2020/02/08 05:47:47;;;;;;;22.75;12.25;;;;;;;-4.61;75.56543;95849.72;;;;
2020/02/08 05:48:48;;;;;;;22.75;12.25;;;;;;;-4.61;75.56543;95849.72;;;;
2020/02/08 05:49:48;;;;;;;22.45;11.9;;;;;;;-4.62;75.53516;95850.61;;;;
2020/02/08 05:50:48;;;;;;;22.45;11.9;;;;;;;-4.62;75.53516;95850.61;;;;
2020/02/08 05:51:49;;;;;;;22.45;11.9;;;;;;;-4.62;75.53516;95850.61;;;;
2020/02/08 05:52:49;;;;;;;22.45;11.9;;;;;;;-4.62;75.53516;95850.61;;;;
2020/02/08 05:53:50;;;;;;;22.45;11.9;;;;;;;-4.62;75.53516;95850.61;;;;
2020/02/08 05:54:50;;;;;;;22.45;11.9;;;;;;;-4.62;75.53516;95850.61;;;;
2020/02/08 05:55:51;;;;;;;22.45;11.9;;;;;;;-4.62;75.53516;95850.61;;;;
2020/02/08 05:56:51;;;;;;;22.45;11.9;;;;;;;-4.62;75.53516;95850.61;;;;
2020/02/08 05:57:52;;;;;;;22.45;11.9;;;;;;;-4.62;75.53516;95850.61;;;;
2020/02/08 05:58:53;;;;;;;22.45;11.9;;;;;;;-4.62;75.53516;95850.61;;;;
2020/02/08 05:59:53;;;;;;;22.45;11.9;;;;;;;-4.62;75.53516;95850.61;;;;
2020/02/08 06:00:54;;;;;;;24.05;12.95;;;;;;;-4.67;75.5166;95859.86;;;;
2020/02/08 06:01:56;;;;;;;24.05;12.95;;;;;;;-4.67;75.5166;95859.86;;;;
2020/02/08 06:02:57;;;;;;;24.05;12.95;;;;;;;-4.67;75.5166;95859.86;;;;
2020/02/08 06:03:57;;;;;;;24.05;12.95;;;;;;;-4.67;75.5166;95859.86;;;;
2020/02/08 06:04:58;;;;;;;24.05;12.95;;;;;;;-4.67;75.5166;95859.86;;;;
2020/02/08 06:05:58;;;;;;;24.05;12.95;;;;;;;-4.67;75.5166;95859.86;;;;
2020/02/08 06:06:59;;;;;;;24.05;12.95;;;;;;;-4.67;75.5166;95859.86;;;;
2020/02/08 06:08:00;;;;;;;24.05;12.95;;;;;;;-4.67;75.5166;95859.86;;;;
2020/02/08 06:09:00;;;;;;;24.05;12.95;;;;;;;-4.67;75.5166;95859.86;;;;
2020/02/08 06:10:30;;;;;;;24.05;12.95;;;;;;;-4.67;75.5166;95859.86;;;;
2020/02/08 06:11:31;;;;;;;22.15;12.3;;;;;;;-4.63;75.58496;95863.44;;;;
2020/02/08 06:12:31;;;;;;;22.15;12.3;;;;;;;-4.63;75.58496;95863.44;;;;
2020/02/08 06:13:32;;;;;;;22.15;12.3;;;;;;;-4.63;75.58496;95863.44;;;;
2020/02/08 06:14:32;;;;;;;22.15;12.3;;;;;;;-4.63;75.58496;95863.44;;;;
2020/02/08 06:15:33;;;;;;;22.15;12.3;;;;;;;-4.63;75.58496;95863.44;;;;
2020/02/08 06:16:34;;;;;;;22.15;12.3;;;;;;;-4.63;75.58496;95863.44;;;;
2020/02/08 06:17:34;;;;;;;22.15;12.3;;;;;;;-4.63;75.58496;95863.44;;;;
2020/02/08 06:18:35;;;;;;;22.15;12.3;;;;;;;-4.63;75.58496;95863.44;;;;
2020/02/08 06:19:35;;;;;;;22.15;12.3;;;;;;;-4.63;75.58496;95863.44;;;;
2020/02/08 06:20:36;;;;;;;22.15;12.3;;;;;;;-4.63;75.58496;95863.44;;;;
2020/02/08 06:21:36;;;;;;;23.35;11.95;;;;;;;-4.68;75.46289;95880.13;;;;
2020/02/08 06:22:37;;;;;;;23.35;11.95;;;;;;;-4.68;75.46289;95880.13;;;;
2020/02/08 06:23:37;;;;;;;23.35;11.95;;;;;;;-4.68;75.46289;95880.13;;;;
2020/02/08 06:24:38;;;;;;;23.35;11.95;;;;;;;-4.68;75.46289;95880.13;;;;
2020/02/08 06:25:38;;;;;;;23.35;11.95;;;;;;;-4.68;75.46289;95880.13;;;;
2020/02/08 06:26:39;;;;;;;23.35;11.95;;;;;;;-4.68;75.46289;95880.13;;;;
2020/02/08 06:27:39;;;;;;;23.35;11.95;;;;;;;-4.68;75.46289;95880.13;;;;
2020/02/08 06:28:40;;;;;;;23.35;11.95;;;;;;;-4.68;75.46289;95880.13;;;;
2020/02/08 06:29:40;;;;;;;23.35;11.95;;;;;;;-4.68;75.46289;95880.13;;;;
2020/02/08 06:30:41;;;;;;;23.35;11.95;;;;;;;-4.68;75.46289;95880.13;;;;
2020/02/08 06:31:41;;;;;;;23.35;11.95;;;;;;;-4.68;75.46289;95880.13;;;;
2020/02/08 06:32:42;;;;;;;23.6;12.7;;;;;;;-4.64;75.57324;95890.73;;;;
2020/02/08 06:33:43;;;;;;;23.6;12.7;;;;;;;-4.64;75.57324;95890.73;;;;
2020/02/08 06:34:43;;;;;;;23.6;12.7;;;;;;;-4.64;75.57324;95890.73;;;;
2020/02/08 06:35:44;;;;;;;23.6;12.7;;;;;;;-4.64;75.57324;95890.73;;;;
2020/02/08 06:36:44;;;;;;;23.6;12.7;;;;;;;-4.64;75.57324;95890.73;;;;
2020/02/08 06:37:45;;;;;;;23.6;12.7;;;;;;;-4.64;75.57324;95890.73;;;;
2020/02/08 06:38:46;;;;;;;23.6;12.7;;;;;;;-4.64;75.57324;95890.73;;;;
2020/02/08 06:39:46;;;;;;;23.6;12.7;;;;;;;-4.64;75.57324;95890.73;;;;
2020/02/08 06:40:46;;;;;;;23.6;12.7;;;;;;;-4.64;75.57324;95890.73;;;;
2020/02/08 06:41:47;;;;;;;23.6;12.7;;;;;;;-4.64;75.57324;95890.73;;;;
2020/02/08 06:42:51;;;;;;;22.9;12.6;;;;;;;-4.66;75.50781;95895.29;;;;
2020/02/08 06:43:52;;;;;;;22.9;12.6;;;;;;;-4.66;75.50781;95895.29;;;;
2020/02/08 06:44:52;;;;;;;22.9;12.6;;;;;;;-4.66;75.50781;95895.29;;;;
2020/02/08 06:45:52;;;;;;;22.9;12.6;;;;;;;-4.66;75.50781;95895.29;;;;
2020/02/08 06:46:53;;;;;;;22.9;12.6;;;;;;;-4.66;75.50781;95895.29;;;;
2020/02/08 06:47:53;;;;;;;22.9;12.6;;;;;;;-4.66;75.50781;95895.29;;;;
2020/02/08 06:48:54;;;;;;;22.9;12.6;;;;;;;-4.66;75.50781;95895.29;;;;
2020/02/08 06:49:54;;;;;;;22.9;12.6;;;;;;;-4.66;75.50781;95895.29;;;;
2020/02/08 06:50:55;;;;;;;22.9;12.6;;;;;;;-4.66;75.50781;95895.29;;;;
2020/02/08 06:51:55;;;;;;;22.9;12.6;;;;;;;-4.66;75.50781;95895.29;;;;
2020/02/08 06:52:56;;;;;;;22.9;12.6;;;;;;;-4.66;75.50781;95895.29;;;;
2020/02/08 06:53:56;;;;;;;23.45;12.25;;;;;;;-4.54;75.44531;95897.38;;;;
2020/02/08 06:55:04;;;;;;;23.45;12.25;;;;;;;-4.54;75.44531;95897.38;;;;
2020/02/08 06:56:04;;;;;;;23.45;12.25;;;;;;;-4.54;75.44531;95897.38;;;;
2020/02/08 06:57:05;;;;;;;23.45;12.25;;;;;;;-4.54;75.44531;95897.38;;;;
2020/02/08 06:58:06;;;;;;;23.45;12.25;;;;;;;-4.54;75.44531;95897.38;;;;
2020/02/08 06:59:06;;;;;;;23.45;12.25;;;;;;;-4.54;75.44531;95897.38;;;;
2020/02/08 07:00:08;;;;;;;23.45;12.25;;;;;;;-4.54;75.44531;95897.38;;;;
2020/02/08 07:01:09;;;;;;;23.45;12.25;;;;;;;-4.54;75.44531;95897.38;;;;
2020/02/08 07:02:10;;;;;;;23.45;12.25;;;;;;;-4.54;75.44531;95897.38;;;;
2020/02/08 07:03:10;;;;;;;23.45;12.25;;;;;;;-4.54;75.44531;95897.38;;;;
2020/02/08 07:04:11;;;;;;;22.75;12.4;;;;;;;-4.47;75.30371;95905.11;;;;
2020/02/08 07:05:11;;;;;;;22.75;12.4;;;;;;;-4.47;75.30371;95905.11;;;;
2020/02/08 07:06:11;;;;;;;22.75;12.4;;;;;;;-4.47;75.30371;95905.11;;;;
2020/02/08 07:07:12;;;;;;;22.75;12.4;;;;;;;-4.47;75.30371;95905.11;;;;
2020/02/08 07:08:12;;;;;;;22.75;12.4;;;;;;;-4.47;75.30371;95905.11;;;;
2020/02/08 07:09:13;;;;;;;22.75;12.4;;;;;;;-4.47;75.30371;95905.11;;;;
2020/02/08 07:10:48;;;;;;;22.75;12.4;;;;;;;-4.47;75.30371;95905.11;;;;
2020/02/08 07:11:49;;;;;;;22.75;12.4;;;;;;;-4.47;75.30371;95905.11;;;;
2020/02/08 07:12:49;;;;;;;22.75;12.4;;;;;;;-4.47;75.30371;95905.11;;;;
2020/02/08 07:13:50;;;;;;;22.75;12.4;;;;;;;-4.47;75.30371;95905.11;;;;
2020/02/08 07:14:50;;;;;;;25.2;14.05;;;;;;;-4.25;75.29102;95929.6;;;;
2020/02/08 07:15:51;;;;;;;25.2;14.05;;;;;;;-4.25;75.29102;95929.6;;;;
2020/02/08 07:16:52;;;;;;;25.2;14.05;;;;;;;-4.25;75.29102;95929.6;;;;
2020/02/08 07:17:52;;;;;;;25.2;14.05;;;;;;;-4.25;75.29102;95929.6;;;;
2020/02/08 07:18:53;;;;;;;25.2;14.05;;;;;;;-4.25;75.29102;95929.6;;;;
2020/02/08 07:19:53;;;;;;;25.2;14.05;;;;;;;-4.25;75.29102;95929.6;;;;
2020/02/08 07:20:54;;;;;;;25.2;14.05;;;;;;;-4.25;75.29102;95929.6;;;;
2020/02/08 07:21:54;;;;;;;25.2;14.05;;;;;;;-4.25;75.29102;95929.6;;;;